Time;durP1;ratioP1;P1;durP2;ratioP2;P2;SDS_P1;SDS_P2;PMS_P1;PMS_P2;Temp;Humidity;BMP_temperature;BMP_pressure;BME280_temperature;BME280_humidity;BME280_pressure;Samples;Min_cycle;Max_cycle;Signal;HPM_P1;HPM_P2
2020/12/22 00:02:15;;;;;;;7.07;4.70;;;8.90;99.90;;;;;;5028122;28;20017;-79
2020/12/22 00:04:40;;;;;;;5.88;4.47;;;8.90;99.90;;;;;;5025963;28;20518;-79
2020/12/22 00:07:06;;;;;;;6.43;4.47;;;8.90;99.90;;;;;;5027426;28;20522;-79
2020/12/22 00:09:31;;;;;;;6.30;4.55;;;8.90;99.90;;;;;;5027057;28;20021;-80
2020/12/22 00:11:57;;;;;;;5.90;4.20;;;8.90;99.90;;;;;;5028073;28;20033;-80
2020/12/22 00:14:23;;;;;;;7.55;4.80;;;8.90;99.90;;;;;;5027094;28;20025;-80
2020/12/22 00:16:48;;;;;;;5.85;4.00;;;8.80;99.90;;;;;;5026285;28;20029;-79
2020/12/22 00:19:14;;;;;;;6.57;4.50;;;8.90;99.90;;;;;;5026807;28;20476;-81
2020/12/22 00:21:40;;;;;;;5.45;4.15;;;8.90;99.90;;;;;;5027963;28;20031;-79
2020/12/22 00:24:06;;;;;;;6.00;4.20;;;8.90;99.90;;;;;;5026808;28;20033;-80
2020/12/22 00:26:32;;;;;;;5.03;3.92;;;8.90;99.90;;;;;;5028298;28;20044;-81
2020/12/22 00:28:58;;;;;;;5.50;4.03;;;9.00;99.90;;;;;;5030178;28;20030;-79
2020/12/22 00:31:23;;;;;;;7.22;3.75;;;9.00;99.90;;;;;;5029634;28;20032;-79
2020/12/22 00:33:49;;;;;;;5.65;3.95;;;9.00;99.90;;;;;;5030267;28;20573;-79
2020/12/22 00:36:15;;;;;;;4.88;3.63;;;9.10;99.90;;;;;;5028245;28;20029;-80
2020/12/22 00:38:43;;;;;;;5.55;4.03;;;9.10;99.90;;;;;;5028551;28;20060;-81
2020/12/22 00:41:13;;;;;;;5.00;3.50;;;9.10;99.90;;;;;;5028552;28;20690;-80
2020/12/22 00:43:43;;;;;;;4.47;3.10;;;9.10;99.90;;;;;;5029963;28;20036;-80
2020/12/22 00:46:13;;;;;;;6.32;3.63;;;9.10;99.90;;;;;;5027404;28;20142;-79
2020/12/22 00:48:39;;;;;;;4.28;3.03;;;8.90;99.90;;;;;;5028336;28;20101;-79
2020/12/22 00:51:05;;;;;;;4.88;2.90;;;9.00;99.90;;;;;;5027721;28;20528;-80
2020/12/22 00:53:30;;;;;;;4.93;3.08;;;9.10;99.90;;;;;;5027536;28;20527;-80
2020/12/22 00:55:56;;;;;;;4.28;2.72;;;9.10;99.90;;;;;;5027957;28;20035;-80
2020/12/22 00:58:21;;;;;;;5.53;2.50;;;9.20;99.90;;;;;;5029863;28;20041;-80
2020/12/22 01:00:47;;;;;;;3.40;2.33;;;9.20;99.90;;;;;;5028067;28;20049;-80
2020/12/22 01:03:13;;;;;;;3.33;2.20;;;9.30;99.90;;;;;;5028770;28;20033;-80
2020/12/22 01:05:38;;;;;;;3.03;2.05;;;9.30;99.90;;;;;;5031177;28;20029;-80
2020/12/22 01:08:04;;;;;;;3.95;2.00;;;9.40;99.90;;;;;;5032645;28;20037;-80
2020/12/22 01:10:29;;;;;;;2.70;1.90;;;9.40;99.90;;;;;;5032933;28;20029;-79
2020/12/22 01:12:55;;;;;;;2.97;1.70;;;9.50;99.90;;;;;;5032591;28;20488;-79
2020/12/22 01:15:21;;;;;;;2.28;1.60;;;9.50;99.90;;;;;;5030851;28;20476;-81
2020/12/22 01:17:47;;;;;;;1.90;1.30;;;9.50;99.90;;;;;;5030940;28;20026;-80
2020/12/22 01:20:13;;;;;;;1.52;0.75;;;9.40;99.90;;;;;;5032246;28;20456;-80
2020/12/22 01:22:38;;;;;;;1.25;0.50;;;9.60;99.90;;;;;;5031301;28;20033;-80
2020/12/22 01:25:04;;;;;;;0.90;0.57;;;9.70;99.90;;;;;;5030694;28;20051;-80
2020/12/22 01:27:29;;;;;;;0.60;0.50;;;9.70;99.90;;;;;;5031676;28;20456;-80
2020/12/22 01:29:55;;;;;;;0.80;0.50;;;9.80;99.90;;;;;;5031147;28;20051;-80
2020/12/22 01:32:21;;;;;;;1.10;0.70;;;9.90;99.90;;;;;;5031583;28;20018;-80
2020/12/22 01:34:46;;;;;;;2.10;0.65;;;10.00;99.90;;;;;;5030741;28;20175;-79
2020/12/22 01:37:13;;;;;;;1.17;0.50;;;10.10;99.90;;;;;;5031005;28;20045;-81
2020/12/22 01:39:39;;;;;;;1.42;0.65;;;10.00;99.90;;;;;;5032031;28;20027;-78
2020/12/22 01:42:10;;;;;;;1.20;0.50;;;10.10;99.90;;;;;;5031757;28;20079;-80
2020/12/22 01:44:36;;;;;;;1.38;0.50;;;10.10;99.90;;;;;;5031943;28;20334;-80
2020/12/22 01:47:02;;;;;;;1.73;0.50;;;10.10;99.90;;;;;;5031742;28;20488;-80
2020/12/22 01:49:28;;;;;;;0.88;0.55;;;10.20;99.90;;;;;;5030028;28;20029;-80
2020/12/22 01:51:56;;;;;;;0.82;0.80;;;10.10;99.90;;;;;;5030214;28;20480;-80
2020/12/22 01:54:23;;;;;;;0.52;0.52;;;10.20;99.90;;;;;;5031091;28;20037;-80
2020/12/22 01:56:49;;;;;;;2.80;0.57;;;10.10;99.90;;;;;;5030707;28;20487;-81
2020/12/22 01:59:17;;;;;;;0.65;0.50;;;10.20;99.90;;;;;;5029989;28;20275;-79
2020/12/22 02:01:43;;;;;;;0.55;0.50;;;10.20;99.90;;;;;;5030443;28;20507;-80
2020/12/22 02:04:10;;;;;;;1.52;0.60;;;10.20;99.90;;;;;;5030360;28;20041;-80
2020/12/22 02:06:36;;;;;;;0.70;0.50;;;10.30;99.90;;;;;;5029749;28;20105;-80
2020/12/22 02:09:05;;;;;;;0.57;0.57;;;10.30;99.90;;;;;;5031522;28;20141;-79
2020/12/22 02:11:33;;;;;;;1.50;0.73;;;10.30;99.90;;;;;;5029969;28;20033;-79
2020/12/22 02:14:00;;;;;;;1.38;0.50;;;10.40;99.90;;;;;;5029851;28;20029;-81
2020/12/22 02:16:26;;;;;;;0.65;0.50;;;10.40;99.90;;;;;;5028380;28;20405;-80
2020/12/22 02:18:53;;;;;;;0.50;0.45;;;10.40;99.90;;;;;;5029905;28;20028;-80
2020/12/22 02:21:20;;;;;;;0.50;0.50;;;10.30;99.90;;;;;;5030441;28;20456;-80
2020/12/22 02:23:51;;;;;;;0.93;0.57;;;10.40;99.90;;;;;;5028239;28;20034;-80
2020/12/22 02:26:19;;;;;;;1.00;0.50;;;10.40;99.90;;;;;;5029061;28;20021;-80
2020/12/22 02:28:51;;;;;;;1.45;0.50;;;10.40;99.90;;;;;;5030281;28;20032;-81
2020/12/22 02:31:17;;;;;;;0.95;0.50;;;10.40;99.90;;;;;;5028987;28;20026;-80
2020/12/22 02:33:44;;;;;;;1.93;0.53;;;10.40;99.90;;;;;;5029191;28;20033;-81
2020/12/22 02:36:13;;;;;;;0.93;0.50;;;10.40;99.90;;;;;;5028206;28;20280;-80
2020/12/22 02:38:41;;;;;;;1.73;0.63;;;10.40;99.90;;;;;;5003254;28;20404;-81
2020/12/22 02:41:07;;;;;;;0.77;0.52;;;10.40;99.90;;;;;;5006472;28;20041;-80
2020/12/22 02:43:33;;;;;;;1.30;0.60;;;10.40;99.90;;;;;;5001600;28;21269;-80
2020/12/22 02:45:59;;;;;;;0.52;0.50;;;10.40;99.90;;;;;;5007663;28;20061;-80
2020/12/22 02:48:25;;;;;;;1.13;0.40;;;10.50;99.90;;;;;;5008571;28;20025;-80
2020/12/22 02:50:51;;;;;;;1.25;0.50;;;10.40;99.90;;;;;;5009299;28;20026;-80
2020/12/22 02:53:16;;;;;;;0.90;0.50;;;10.50;99.90;;;;;;5008858;28;20482;-80
2020/12/22 02:55:43;;;;;;;2.17;0.40;;;10.50;99.90;;;;;;5007870;28;20445;-81
2020/12/22 02:58:09;;;;;;;2.88;0.40;;;10.50;99.90;;;;;;5008281;28;20041;-80
2020/12/22 03:00:34;;;;;;;1.70;0.50;;;10.50;99.90;;;;;;5009264;28;20029;-80
2020/12/22 03:03:00;;;;;;;1.85;0.50;;;10.50;99.90;;;;;;5011489;28;20129;-80
2020/12/22 03:05:26;;;;;;;0.50;0.40;;;10.60;99.90;;;;;;5009510;28;20033;-80
2020/12/22 03:07:52;;;;;;;1.02;0.68;;;10.60;99.90;;;;;;5011637;28;20477;-79
2020/12/22 03:10:18;;;;;;;0.43;0.40;;;10.60;99.90;;;;;;5010737;28;20026;-80
2020/12/22 03:12:45;;;;;;;0.33;0.33;;;10.50;99.90;;;;;;5011972;28;20400;-80
2020/12/22 03:15:11;;;;;;;0.67;0.50;;;10.60;99.90;;;;;;5009709;28;20038;-81
2020/12/22 03:17:38;;;;;;;0.40;0.40;;;10.60;99.90;;;;;;5011412;28;20049;-80
2020/12/22 03:20:06;;;;;;;2.67;0.60;;;10.60;99.90;;;;;;5010219;28;20025;-81
2020/12/22 03:22:32;;;;;;;1.95;0.50;;;10.60;99.90;;;;;;5010323;28;20086;-80
2020/12/22 03:24:58;;;;;;;0.40;0.40;;;10.60;99.90;;;;;;5009714;28;20026;-80
2020/12/22 03:27:24;;;;;;;0.65;0.40;;;10.60;99.90;;;;;;5010647;28;20496;-80
2020/12/22 03:29:50;;;;;;;1.38;0.38;;;10.60;99.90;;;;;;5011116;28;20018;-81
2020/12/22 03:32:16;;;;;;;1.05;0.40;;;10.60;99.90;;;;;;5011453;28;20022;-79
2020/12/22 03:34:41;;;;;;;1.15;0.50;;;10.70;99.90;;;;;;5009669;28;20299;-80
2020/12/22 03:37:07;;;;;;;0.65;0.40;;;10.70;99.90;;;;;;5009890;28;20050;-81
2020/12/22 03:39:33;;;;;;;0.50;0.40;;;10.60;99.90;;;;;;5008724;28;20160;-81
2020/12/22 03:41:58;;;;;;;0.35;0.35;;;10.60;99.90;;;;;;5010225;28;20124;-80
2020/12/22 03:44:24;;;;;;;1.52;0.50;;;10.50;99.90;;;;;;5009854;28;20091;-81
2020/12/22 03:46:50;;;;;;;2.72;0.65;;;10.50;99.90;;;;;;5011397;28;20669;-81
2020/12/22 03:49:19;;;;;;;0.47;0.47;;;10.40;99.90;;;;;;5009956;28;20030;-81
2020/12/22 03:51:45;;;;;;;0.45;0.40;;;10.40;99.90;;;;;;5010213;28;20022;-81
2020/12/22 03:54:12;;;;;;;0.28;0.28;;;10.50;99.90;;;;;;5010935;28;20026;-81
2020/12/22 03:56:38;;;;;;;1.52;0.30;;;10.50;99.90;;;;;;5009847;28;20033;-81
2020/12/22 03:59:04;;;;;;;0.30;0.30;;;10.60;99.90;;;;;;5009898;28;20061;-81
2020/12/22 04:01:30;;;;;;;0.73;0.38;;;10.60;99.90;;;;;;5009664;28;20432;-81
2020/12/22 04:03:55;;;;;;;0.30;0.30;;;10.60;99.90;;;;;;5012027;28;20044;-80
2020/12/22 04:06:21;;;;;;;3.70;0.40;;;10.60;99.90;;;;;;5009429;28;20030;-81
2020/12/22 04:08:52;;;;;;;0.30;0.30;;;10.60;99.90;;;;;;5010289;28;20077;-80
2020/12/22 04:11:17;;;;;;;0.20;0.20;;;10.70;99.90;;;;;;5007942;28;20024;-80
2020/12/22 04:13:43;;;;;;;1.23;0.45;;;10.70;99.90;;;;;;5008234;28;20459;-80
2020/12/22 04:16:09;;;;;;;0.65;0.20;;;10.70;99.90;;;;;;5007996;28;20029;-81
2020/12/22 04:18:34;;;;;;;0.70;0.30;;;10.70;99.90;;;;;;5009517;28;20022;-81
2020/12/22 04:21:00;;;;;;;1.13;0.35;;;10.70;99.90;;;;;;5007358;28;20022;-81
2020/12/22 04:23:26;;;;;;;0.93;0.30;;;10.80;99.90;;;;;;5007737;28;20497;-81
2020/12/22 04:25:52;;;;;;;0.73;0.30;;;10.80;99.90;;;;;;5006647;28;20109;-80
2020/12/22 04:28:18;;;;;;;0.45;0.40;;;10.80;99.90;;;;;;5008914;28;20022;-81
2020/12/22 04:30:44;;;;;;;1.17;0.30;;;10.80;99.90;;;;;;5007352;28;20026;-81
2020/12/22 04:33:12;;;;;;;1.38;0.40;;;10.70;99.90;;;;;;5007152;28;20049;-81
2020/12/22 04:35:38;;;;;;;;;;;10.70;99.90;;;;;;5007449;28;20028;-81
2020/12/22 04:38:04;;;;;;;0.95;0.40;;;10.70;99.90;;;;;;5007195;28;19905;-81
2020/12/22 04:40:31;;;;;;;1.33;0.43;;;10.60;99.90;;;;;;5010331;28;20095;-81
2020/12/22 04:42:58;;;;;;;3.83;0.43;;;10.70;99.90;;;;;;5011811;28;20084;-81
2020/12/22 04:45:26;;;;;;;0.47;0.35;;;10.80;99.90;;;;;;5011505;28;20029;-81
2020/12/22 04:47:52;;;;;;;;;;;10.70;99.90;;;;;;5012506;28;20037;-81
2020/12/22 04:50:18;;;;;;;2.30;0.30;;;10.70;99.90;;;;;;5010527;28;20309;-81
2020/12/22 04:52:45;;;;;;;1.20;0.50;;;10.70;99.90;;;;;;5011777;28;20033;-81
2020/12/22 04:55:11;;;;;;;0.45;0.30;;;10.80;99.90;;;;;;5011153;28;20056;-81
2020/12/22 04:57:46;;;;;;;2.15;0.60;;;10.80;99.90;;;;;;5011072;28;20645;-81
2020/12/22 05:00:12;;;;;;;1.48;0.40;;;10.70;99.90;;;;;;5012362;28;20385;-81
2020/12/22 05:02:41;;;;;;;1.77;0.30;;;10.70;99.90;;;;;;5011298;28;20157;-81
2020/12/22 05:05:07;;;;;;;1.10;0.43;;;10.70;99.90;;;;;;5009607;28;20033;-81
2020/12/22 05:07:33;;;;;;;1.52;0.40;;;10.70;99.90;;;;;;5010232;28;20026;-81
2020/12/22 05:10:05;;;;;;;1.98;0.38;;;10.80;99.90;;;;;;5011807;28;20045;-81
2020/12/22 05:12:32;;;;;;;2.45;0.47;;;10.80;99.90;;;;;;5011933;28;20041;-82
2020/12/22 05:14:59;;;;;;;0.65;0.43;;;10.80;99.90;;;;;;5011109;28;20108;-81
2020/12/22 05:17:25;;;;;;;0.40;0.40;;;10.70;99.90;;;;;;5009941;28;20068;-81
2020/12/22 05:19:51;;;;;;;4.93;0.60;;;10.80;99.90;;;;;;5011973;28;20428;-82
2020/12/22 05:22:16;;;;;;;0.50;0.35;;;10.80;99.90;;;;;;5010102;28;20389;-82
2020/12/22 05:24:45;;;;;;;0.88;0.30;;;10.70;99.90;;;;;;5003777;28;20497;-82
2020/12/22 05:27:11;;;;;;;1.75;0.47;;;10.60;99.90;;;;;;4991769;28;20101;-81
2020/12/22 05:29:38;;;;;;;0.90;0.20;;;10.60;99.90;;;;;;4990267;28;20034;-82
2020/12/22 05:32:03;;;;;;;1.65;0.30;;;10.60;99.90;;;;;;4989950;28;20410;-81
2020/12/22 05:34:29;;;;;;;1.27;0.50;;;10.70;99.90;;;;;;4989755;28;20120;-82
2020/12/22 05:37:01;;;;;;;0.50;0.20;;;10.60;99.90;;;;;;4991392;28;20027;-82
2020/12/22 05:39:27;;;;;;;0.95;0.38;;;10.70;99.90;;;;;;4989890;28;20393;-81
2020/12/22 05:41:53;;;;;;;0.70;0.40;;;10.80;99.90;;;;;;4990177;28;20118;-81
2020/12/22 05:44:24;;;;;;;0.82;0.30;;;10.90;99.90;;;;;;4990799;28;20109;-81
2020/12/22 05:46:51;;;;;;;0.52;0.30;;;10.80;99.90;;;;;;4989849;28;20056;-81
2020/12/22 05:49:17;;;;;;;2.92;0.40;;;10.90;99.90;;;;;;4990025;28;20060;-82
2020/12/22 05:51:47;;;;;;;1.20;0.40;;;10.80;99.90;;;;;;4989817;28;20034;-81
2020/12/22 05:54:17;;;;;;;0.57;0.25;;;10.80;99.90;;;;;;4990925;28;20026;-80
2020/12/22 05:56:43;;;;;;;2.08;0.40;;;10.90;99.90;;;;;;4992555;28;20500;-81
2020/12/22 05:59:20;;;;;;;1.05;0.40;;;10.90;99.90;;;;;;4994281;28;20037;-81
2020/12/22 06:01:46;;;;;;;5.43;1.10;;;10.90;99.90;;;;;;4993762;28;20113;-80
2020/12/22 06:04:12;;;;;;;1.48;0.25;;;10.90;99.90;;;;;;4993007;28;20027;-81
2020/12/22 06:06:38;;;;;;;0.77;0.35;;;10.90;99.90;;;;;;4993307;28;20030;-80
2020/12/22 06:09:03;;;;;;;1.90;0.40;;;10.90;99.90;;;;;;4991767;28;20469;-81
2020/12/22 06:11:33;;;;;;;3.00;0.70;;;10.90;99.90;;;;;;4992585;28;20091;-80
2020/12/22 06:14:04;;;;;;;1.70;0.43;;;11.00;99.90;;;;;;4992975;28;20019;-80
2020/12/22 06:16:30;;;;;;;2.33;0.40;;;11.00;99.90;;;;;;4990327;28;20038;-80
2020/12/22 06:18:56;;;;;;;0.40;0.40;;;10.90;99.90;;;;;;4989601;28;20033;-81
2020/12/22 06:21:21;;;;;;;0.20;0.20;;;11.00;99.90;;;;;;4990152;28;20081;-81
2020/12/22 06:23:49;;;;;;;0.20;0.20;;;11.10;99.90;;;;;;4992809;28;20034;-81
2020/12/22 06:26:19;;;;;;;1.65;0.45;;;11.00;99.90;;;;;;4991438;28;20018;-81
2020/12/22 06:28:45;;;;;;;1.02;0.50;;;11.10;99.90;;;;;;4991852;28;20022;-80
2020/12/22 06:31:22;;;;;;;4.20;0.30;;;11.10;99.90;;;;;;4991071;28;20393;-80
2020/12/22 06:33:49;;;;;;;2.03;0.30;;;11.10;99.90;;;;;;4991141;28;20117;-80
2020/12/22 06:36:17;;;;;;;0.57;0.40;;;11.20;99.90;;;;;;4990748;28;20030;-81
2020/12/22 06:38:48;;;;;;;0.80;0.40;;;11.10;99.90;;;;;;4989889;28;20504;-80
2020/12/22 06:41:33;;;;;;;0.75;0.50;;;11.20;99.90;;;;;;4991052;28;20026;-82
2020/12/22 06:44:13;;;;;;;1.80;0.50;;;11.30;99.90;;;;;;4994873;28;20026;-80
2020/12/22 06:46:41;;;;;;;0.75;0.45;;;11.30;99.90;;;;;;4992491;28;20034;-80
2020/12/22 06:49:07;;;;;;;3.53;0.50;;;11.30;99.90;;;;;;4989867;28;20034;-80
2020/12/22 06:51:35;;;;;;;0.55;0.38;;;11.30;99.90;;;;;;4989425;28;20545;-80
2020/12/22 06:54:25;;;;;;;2.38;0.60;;;11.30;99.90;;;;;;4989267;28;20030;-82
2020/12/22 06:56:51;;;;;;;0.60;0.40;;;11.30;99.90;;;;;;4988885;28;20053;-82
2020/12/22 06:59:42;;;;;;;3.25;0.70;;;11.30;99.90;;;;;;4988529;28;20485;-82
2020/12/22 07:02:31;;;;;;;0.68;0.50;;;11.20;99.90;;;;;;4989366;28;20026;-83
2020/12/22 07:04:58;;;;;;;2.83;0.60;;;11.30;99.90;;;;;;4987940;28;20556;-81
2020/12/22 07:07:24;;;;;;;0.90;0.52;;;11.30;99.90;;;;;;4988326;28;20026;-82
2020/12/22 07:10:06;;;;;;;1.42;0.60;;;11.30;99.90;;;;;;4988544;28;20481;-83
2020/12/22 07:12:33;;;;;;;1.38;0.50;;;11.40;99.90;;;;;;4988237;28;20069;-81
2020/12/22 07:14:59;;;;;;;1.63;0.50;;;11.40;99.90;;;;;;4987967;28;20030;-81
2020/12/22 07:17:25;;;;;;;1.42;0.52;;;11.50;99.90;;;;;;4988322;28;20034;-81
2020/12/22 07:19:55;;;;;;;2.15;0.57;;;11.60;99.90;;;;;;4989147;28;20034;-81
2020/12/22 07:22:22;;;;;;;1.00;0.30;;;11.60;99.90;;;;;;4990633;28;20061;-80
2020/12/22 07:24:48;;;;;;;;;;;11.70;99.90;;;;;;4990097;28;20026;-80
2020/12/22 07:27:13;;;;;;;1.48;0.50;;;11.70;99.90;;;;;;4989793;28;19912;-80
2020/12/22 07:29:40;;;;;;;0.60;0.50;;;11.60;99.90;;;;;;4989357;28;20051;-80
2020/12/22 07:32:07;;;;;;;0.80;0.40;;;11.70;99.90;;;;;;4990415;28;20027;-80
2020/12/22 07:34:33;;;;;;;1.45;0.38;;;11.70;99.90;;;;;;4988879;28;20030;-81
2020/12/22 07:37:17;;;;;;;1.38;0.50;;;11.60;99.90;;;;;;4987560;28;20080;-81
2020/12/22 07:39:43;;;;;;;0.82;0.40;;;11.70;99.90;;;;;;4988509;28;20026;-81
2020/12/22 07:42:17;;;;;;;0.40;0.30;;;11.70;99.90;;;;;;4990290;28;20077;-80
2020/12/22 07:44:45;;;;;;;1.27;0.38;;;11.70;99.90;;;;;;4989391;28;20033;-79
2020/12/22 07:47:10;;;;;;;;;;;11.60;99.90;;;;;;4988720;28;20027;-80
2020/12/22 07:49:37;;;;;;;1.05;0.50;;;11.60;99.90;;;;;;4988621;28;19918;-80
2020/12/22 07:52:03;;;;;;;1.10;0.47;;;11.60;99.90;;;;;;4987085;28;20509;-81
2020/12/22 07:54:29;;;;;;;1.88;0.70;;;11.70;99.90;;;;;;4988053;28;20026;-81
2020/12/22 07:56:59;;;;;;;0.80;0.40;;;11.70;99.90;;;;;;4988693;28;20443;-81
2020/12/22 07:59:29;;;;;;;0.47;0.30;;;11.70;99.90;;;;;;4988647;28;20082;-81
2020/12/22 08:01:55;;;;;;;0.70;0.30;;;11.70;99.90;;;;;;4987688;28;20624;-81
2020/12/22 08:04:25;;;;;;;0.40;0.40;;;11.70;99.90;;;;;;4987557;28;20080;-81
2020/12/22 08:06:59;;;;;;;0.90;0.35;;;11.70;99.90;;;;;;4986940;28;20088;-81
2020/12/22 08:09:26;;;;;;;0.70;0.30;;;11.70;99.90;;;;;;4987277;28;20117;-82
2020/12/22 08:11:54;;;;;;;0.73;0.30;;;11.70;99.90;;;;;;4987173;28;20553;-82
2020/12/22 08:14:21;;;;;;;;;;;11.70;99.90;;;;;;4990827;28;20121;-82
2020/12/22 08:16:48;;;;;;;2.47;0.28;;;11.70;99.90;;;;;;4992403;28;19917;-83
2020/12/22 08:19:15;;;;;;;0.85;0.35;;;11.80;99.90;;;;;;4991099;28;20034;-83
2020/12/22 08:21:41;;;;;;;1.55;0.20;;;11.80;99.90;;;;;;4990892;28;20030;-81
2020/12/22 08:24:07;;;;;;;0.77;0.30;;;11.70;99.90;;;;;;4990913;28;20033;-81
2020/12/22 08:26:32;;;;;;;0.60;0.30;;;11.80;99.90;;;;;;4992546;28;20027;-80
2020/12/22 08:29:02;;;;;;;0.50;0.32;;;11.90;99.90;;;;;;4991136;28;20464;-81
2020/12/22 08:31:28;;;;;;;0.50;0.30;;;11.90;99.90;;;;;;4992604;28;20057;-81
2020/12/22 08:33:59;;;;;;;0.68;0.40;;;11.90;99.90;;;;;;4991018;28;20034;-81
2020/12/22 08:36:29;;;;;;;0.30;0.28;;;11.90;99.90;;;;;;4992687;28;20029;-80
2020/12/22 08:39:16;;;;;;;0.43;0.28;;;12.00;99.90;;;;;;4993998;28;20027;-81
2020/12/22 08:41:43;;;;;;;0.82;0.50;;;11.90;99.90;;;;;;4995383;28;20026;-80
2020/12/22 08:44:10;;;;;;;1.00;0.40;;;12.00;99.90;;;;;;4992522;28;20042;-81
2020/12/22 08:46:37;;;;;;;1.27;0.50;;;12.00;99.90;;;;;;4990976;28;20023;-81
2020/12/22 08:49:25;;;;;;;0.75;0.40;;;12.00;99.90;;;;;;4991959;28;20440;-81
2020/12/22 08:51:52;;;;;;;1.27;0.40;;;11.90;99.90;;;;;;4991519;28;20157;-80
2020/12/22 08:54:17;;;;;;;1.02;0.40;;;12.00;99.90;;;;;;4991005;28;20041;-81
2020/12/22 08:56:43;;;;;;;0.32;0.20;;;11.90;99.90;;;;;;4992635;28;20018;-81
2020/12/22 08:59:11;;;;;;;0.40;0.30;;;11.80;99.90;;;;;;4991627;28;20110;-81
2020/12/22 09:01:42;;;;;;;0.70;0.40;;;11.80;99.90;;;;;;4990645;28;20136;-81
2020/12/22 09:04:10;;;;;;;0.90;0.50;;;11.80;99.90;;;;;;4989732;28;20033;-82
2020/12/22 09:06:46;;;;;;;0.70;0.40;;;11.80;99.90;;;;;;4991457;28;20026;-81
2020/12/22 09:09:16;;;;;;;0.63;0.30;;;11.80;99.90;;;;;;4990622;28;20118;-81
2020/12/22 09:11:43;;;;;;;1.08;0.43;;;11.70;99.90;;;;;;4990559;28;20022;-81
2020/12/22 09:14:13;;;;;;;0.30;0.30;;;11.70;99.90;;;;;;4990262;28;20065;-82
2020/12/22 09:16:55;;;;;;;1.35;0.43;;;11.70;99.90;;;;;;4990757;28;20377;-81
2020/12/22 09:19:46;;;;;;;2.58;0.50;;;11.60;99.90;;;;;;4990960;28;20567;-81
2020/12/22 09:22:13;;;;;;;1.67;0.40;;;11.50;99.90;;;;;;4990331;28;20125;-81
2020/12/22 09:24:39;;;;;;;7.45;0.50;;;11.50;99.90;;;;;;5021711;28;20466;-81
2020/12/22 09:27:10;;;;;;;5.28;0.70;;;11.40;99.90;;;;;;5048118;28;20049;-78
2020/12/22 09:29:38;;;;;;;2.75;0.80;;;11.40;99.90;;;;;;5032333;28;20018;-81
2020/12/22 09:32:05;;;;;;;3.08;1.13;;;11.30;99.90;;;;;;5025337;28;20026;-80
2020/12/22 09:34:33;;;;;;;2.60;0.83;;;11.30;99.90;;;;;;5030117;28;20431;-81
2020/12/22 09:37:00;;;;;;;3.08;0.73;;;11.40;99.90;;;;;;5025872;28;20774;-80
2020/12/22 09:39:27;;;;;;;2.20;0.60;;;11.50;99.90;;;;;;5047452;28;20474;-80
2020/12/22 09:42:00;;;;;;;1.47;0.50;;;11.50;99.90;;;;;;5031331;28;20033;-80
2020/12/22 09:44:35;;;;;;;3.03;0.60;;;11.60;99.90;;;;;;5029858;28;20284;-81
2020/12/22 09:47:02;;;;;;;1.83;0.40;;;11.70;99.90;;;;;;5030124;28;20507;-81
2020/12/22 09:49:28;;;;;;;1.52;0.60;;;11.70;99.90;;;;;;5031592;28;20033;-82
2020/12/22 09:51:54;;;;;;;2.58;1.25;;;11.80;99.90;;;;;;5030918;28;20116;-82
2020/12/22 09:54:21;;;;;;;1.50;0.60;;;11.80;99.90;;;;;;5030237;28;20522;-80
2020/12/22 09:56:47;;;;;;;1.30;0.57;;;11.90;99.90;;;;;;5031186;28;20033;-80
2020/12/22 09:59:13;;;;;;;2.75;0.80;;;11.90;99.90;;;;;;5032361;28;20043;-81
2020/12/22 10:01:38;;;;;;;1.17;0.40;;;11.90;99.90;;;;;;5035581;28;20029;-81
2020/12/22 10:04:04;;;;;;;1.35;0.55;;;12.00;99.90;;;;;;5032064;28;20377;-81
2020/12/22 10:06:30;;;;;;;1.38;0.50;;;12.00;99.90;;;;;;5031157;28;20042;-80
2020/12/22 10:08:56;;;;;;;0.80;0.50;;;12.00;99.90;;;;;;5031524;28;20122;-80
2020/12/22 10:11:22;;;;;;;1.15;0.60;;;12.00;99.90;;;;;;5031179;28;20168;-81
2020/12/22 10:13:48;;;;;;;1.95;0.47;;;12.10;99.90;;;;;;5029508;28;20032;-81
2020/12/22 10:16:16;;;;;;;1.00;0.40;;;12.10;99.90;;;;;;5029405;28;20388;-81
2020/12/22 10:18:41;;;;;;;1.85;0.50;;;12.10;99.90;;;;;;5031400;28;20550;-81
2020/12/22 10:21:12;;;;;;;3.03;0.60;;;12.20;99.90;;;;;;5029806;28;20136;-82
2020/12/22 10:23:39;;;;;;;2.65;0.60;;;12.20;99.90;;;;;;5029845;28;20116;-80
2020/12/22 10:26:07;;;;;;;1.77;0.63;;;12.10;99.90;;;;;;5031050;28;20033;-80
2020/12/22 10:28:35;;;;;;;1.23;0.60;;;12.10;99.90;;;;;;5029917;28;20034;-81
2020/12/22 10:31:01;;;;;;;2.55;0.55;;;12.20;99.90;;;;;;5028942;28;20041;-80
2020/12/22 10:33:27;;;;;;;1.45;0.70;;;12.20;99.90;;;;;;5028273;28;20125;-80
2020/12/22 10:35:53;;;;;;;2.38;0.50;;;12.20;99.90;;;;;;5028610;28;20100;-81
2020/12/22 10:38:19;;;;;;;1.42;0.57;;;12.30;99.90;;;;;;5029526;28;20401;-80
2020/12/22 10:40:45;;;;;;;2.25;0.70;;;12.30;99.90;;;;;;5029343;28;20432;-80
2020/12/22 10:43:11;;;;;;;3.45;1.20;;;12.40;99.90;;;;;;5031660;28;20032;-80
2020/12/22 10:45:37;;;;;;;4.50;1.00;;;12.40;99.90;;;;;;5035169;28;20025;-81
2020/12/22 10:48:07;;;;;;;5.60;0.73;;;12.30;99.90;;;;;;5032112;28;20025;-80
2020/12/22 10:50:35;;;;;;;0.45;0.40;;;12.30;99.90;;;;;;5032217;28;20079;-81
2020/12/22 10:53:01;;;;;;;1.92;0.60;;;12.30;99.90;;;;;;5030278;28;20060;-80
2020/12/22 10:55:27;;;;;;;0.98;0.60;;;12.30;99.90;;;;;;5031545;28;20029;-81
2020/12/22 10:57:52;;;;;;;0.88;0.60;;;12.30;99.90;;;;;;5030913;28;20095;-80
2020/12/22 11:00:18;;;;;;;0.93;0.60;;;12.30;99.90;;;;;;5029643;28;20053;-80
2020/12/22 11:02:49;;;;;;;1.67;0.85;;;12.40;99.90;;;;;;5030197;28;20029;-80
2020/12/22 11:05:15;;;;;;;1.25;0.40;;;12.50;99.90;;;;;;5029157;28;20703;-80
2020/12/22 11:10:09;;;;;;;0.70;0.50;;;12.50;99.90;;;;;;5030980;28;20026;-80
2020/12/22 11:12:35;;;;;;;0.70;0.57;;;12.60;99.90;;;;;;5029965;28;20017;-80
2020/12/22 11:15:00;;;;;;;1.25;0.50;;;12.60;99.90;;;;;;5027522;28;20037;-80
2020/12/22 11:17:26;;;;;;;1.38;0.60;;;12.70;99.90;;;;;;5030739;28;20495;-81
2020/12/22 11:19:53;;;;;;;0.63;0.50;;;12.70;99.90;;;;;;5029427;28;20018;-80
2020/12/22 11:22:19;;;;;;;1.52;0.50;;;12.80;99.90;;;;;;5030657;28;20018;-80
2020/12/22 11:24:45;;;;;;;1.42;0.47;;;12.80;99.90;;;;;;5028710;28;20057;-81
2020/12/22 11:27:10;;;;;;;1.17;0.50;;;12.80;99.90;;;;;;5030039;28;20064;-81
2020/12/22 11:29:36;;;;;;;0.47;0.40;;;12.90;99.90;;;;;;5028205;28;20076;-78
2020/12/22 11:32:02;;;;;;;1.35;0.63;;;12.90;99.90;;;;;;5027858;28;20021;-79
2020/12/22 11:34:27;;;;;;;1.55;0.55;;;12.90;99.90;;;;;;5027275;28;20026;-79
2020/12/22 11:36:54;;;;;;;0.45;0.43;;;12.90;99.90;;;;;;5028175;28;20413;-79
2020/12/22 11:39:21;;;;;;;1.88;0.50;;;12.80;99.90;;;;;;5028201;28;20175;-79
2020/12/22 11:41:47;;;;;;;1.20;0.63;;;12.70;99.90;;;;;;5027893;28;20388;-79
2020/12/22 11:44:13;;;;;;;0.47;0.40;;;12.70;99.90;;;;;;5027557;28;20029;-81
2020/12/22 11:46:45;;;;;;;0.60;0.50;;;12.70;99.90;;;;;;5028147;28;20025;-81
2020/12/22 11:49:12;;;;;;;0.75;0.40;;;12.70;99.90;;;;;;5027302;28;20107;-79
2020/12/22 11:51:38;;;;;;;1.45;0.52;;;12.70;99.90;;;;;;5026305;28;20021;-79
2020/12/22 11:54:04;;;;;;;6.13;1.37;;;12.70;99.90;;;;;;5026106;28;20053;-79
2020/12/22 11:56:31;;;;;;;2.63;0.60;;;12.80;99.90;;;;;;5025287;28;20369;-78
2020/12/22 11:58:57;;;;;;;6.95;1.10;;;12.70;99.90;;;;;;5025953;28;20563;-79
2020/12/22 12:01:29;;;;;;;4.63;0.93;;;12.80;99.90;;;;;;5027960;28;20033;-79
2020/12/22 12:03:56;;;;;;;2.03;0.50;;;12.80;99.90;;;;;;5025328;28;20029;-79
2020/12/22 12:06:27;;;;;;;0.65;0.32;;;12.80;99.90;;;;;;5026795;28;20037;-79
2020/12/22 12:08:52;;;;;;;0.75;0.40;;;12.80;99.90;;;;;;5025978;28;20033;-80
2020/12/22 12:11:18;;;;;;;1.05;0.40;;;12.80;99.90;;;;;;5027043;28;20030;-80
2020/12/22 12:13:44;;;;;;;2.85;0.30;;;12.90;99.90;;;;;;5026949;28;20076;-80
2020/12/22 12:16:09;;;;;;;17.55;1.63;;;13.00;99.90;;;;;;5026865;28;20090;-79
2020/12/22 12:18:35;;;;;;;35.28;2.63;;;13.10;99.90;;;;;;5026609;28;20037;-79
2020/12/22 12:21:02;;;;;;;1.08;0.50;;;13.00;99.90;;;;;;5026911;28;20025;-79
2020/12/22 12:23:27;;;;;;;0.47;0.47;;;13.00;99.90;;;;;;5025639;28;20511;-80
2020/12/22 12:25:54;;;;;;;1.85;0.30;;;12.90;99.90;;;;;;5026360;28;20136;-78
2020/12/22 12:28:20;;;;;;;0.95;0.40;;;12.90;99.90;;;;;;5027188;28;20064;-80
2020/12/22 12:30:46;;;;;;;0.40;0.40;;;12.80;99.90;;;;;;5024617;28;20785;-81
2020/12/22 12:33:12;;;;;;;0.75;0.40;;;12.90;99.90;;;;;;5025671;28;20078;-79
2020/12/22 12:35:37;;;;;;;0.28;0.28;;;12.80;99.90;;;;;;5024940;28;20025;-80
2020/12/22 12:38:03;;;;;;;4.22;0.98;;;12.80;99.90;;;;;;5026179;28;20060;-80
2020/12/22 12:40:29;;;;;;;18.33;2.83;;;12.70;99.90;;;;;;5027242;28;20399;-81
2020/12/22 12:42:54;;;;;;;11.05;1.70;;;12.60;99.90;;;;;;5026218;28;20412;-80
2020/12/22 12:45:20;;;;;;;12.98;1.90;;;12.60;99.90;;;;;;5026208;28;20029;-80
2020/12/22 12:47:46;;;;;;;0.88;0.52;;;12.50;99.90;;;;;;5025662;28;20432;-79
2020/12/22 12:50:12;;;;;;;1.50;0.50;;;12.50;99.90;;;;;;5027719;28;20506;-79
2020/12/22 12:52:37;;;;;;;1.88;0.57;;;12.40;99.90;;;;;;5026268;28;20110;-80